Time;durP1;ratioP1;P1;durP2;ratioP2;P2;SDS_P1;SDS_P2;PMS_P1;PMS_P2;Temp;Humidity;BMP_temperature;BMP_pressure;BME280_temperature;BME280_humidity;BME280_pressure;Samples;Min_cycle;Max_cycle;Signal;HPM_P1;HPM_P2
2022/12/13 00:00:29;;;;;;;8.20;8.00;;;-5.50;99.90;;;;;;5085278;28;20234;-80
2022/12/13 00:02:57;;;;;;;8.07;7.87;;;-5.60;99.90;;;;;;5085148;28;20233;-80
2022/12/13 00:05:26;;;;;;;8.27;8.07;;;-5.60;99.90;;;;;;5084284;28;20288;-82
2022/12/13 00:07:57;;;;;;;8.40;8.20;;;-5.60;99.90;;;;;;5084546;28;20253;-82
2022/12/13 00:10:27;;;;;;;8.50;8.30;;;-5.70;99.90;;;;;;5084389;28;20267;-79
2022/12/13 00:12:55;;;;;;;8.77;8.57;;;-5.70;99.90;;;;;;5083907;28;20236;-79
2022/12/13 00:15:33;;;;;;;8.50;8.30;;;-5.80;99.90;;;;;;5083585;28;20266;-81
2022/12/13 00:18:11;;;;;;;8.50;8.30;;;-5.80;99.90;;;;;;5085834;28;20234;-79
2022/12/13 00:20:41;;;;;;;8.57;8.37;;;-5.80;99.90;;;;;;5086790;28;20244;-80
2022/12/13 00:23:13;;;;;;;8.47;8.27;;;-5.90;99.90;;;;;;5087041;28;20225;-80
2022/12/13 00:25:40;;;;;;;8.33;8.13;;;-6.00;99.90;;;;;;5087017;28;20248;-80
2022/12/13 00:28:10;;;;;;;8.30;8.10;;;-6.00;99.90;;;;;;5086942;28;20228;-80
2022/12/13 00:30:41;;;;;;;8.40;8.20;;;-6.10;99.90;;;;;;5087423;28;20230;-80
2022/12/13 00:33:09;;;;;;;8.70;8.50;;;-6.10;99.90;;;;;;5087155;28;20237;-80
2022/12/13 00:38:24;;;;;;;8.27;8.07;;;-6.20;99.90;;;;;;5086401;28;20233;-80
2022/12/13 00:40:57;;;;;;;8.20;8.00;;;-6.30;99.90;;;;;;5086534;28;20284;-80
2022/12/13 00:43:24;;;;;;;8.37;8.17;;;-6.30;99.90;;;;;;5088648;28;20297;-79
2022/12/13 00:45:55;;;;;;;8.30;8.10;;;-6.30;99.90;;;;;;5089190;28;20251;-80
2022/12/13 00:48:23;;;;;;;8.33;8.13;;;-6.40;99.90;;;;;;5089106;28;20251;-80
2022/12/13 00:50:51;;;;;;;8.43;8.23;;;-6.40;99.90;;;;;;5086864;28;20230;-81
2022/12/13 00:53:22;;;;;;;8.33;8.13;;;-6.40;99.90;;;;;;5087994;28;20257;-82
2022/12/13 00:55:51;;;;;;;8.17;7.97;;;-6.30;99.90;;;;;;5088673;28;20236;-81
2022/12/13 00:58:20;;;;;;;8.37;8.17;;;-6.30;99.90;;;;;;5089342;28;20243;-79
2022/12/13 01:00:49;;;;;;;8.50;8.30;;;-6.30;99.90;;;;;;5086927;28;20274;-79
2022/12/13 01:06:15;;;;;;;8.17;7.97;;;-6.30;99.90;;;;;;5087381;28;20220;-80
2022/12/13 01:08:45;;;;;;;8.27;8.07;;;-6.40;99.90;;;;;;5088467;28;20386;-80
2022/12/13 01:11:14;;;;;;;8.17;7.97;;;-6.40;99.90;;;;;;5088106;28;20292;-80
2022/12/13 01:13:44;;;;;;;8.10;7.90;;;-6.40;99.90;;;;;;5095337;28;20248;-79
2022/12/13 01:16:13;;;;;;;8.40;8.20;;;-6.40;99.90;;;;;;5095489;28;20252;-81
2022/12/13 01:18:45;;;;;;;8.60;8.40;;;-6.40;99.90;;;;;;5090369;28;20239;-81
2022/12/13 01:21:20;;;;;;;8.60;8.40;;;-6.40;99.90;;;;;;5089160;28;20228;-81
2022/12/13 01:23:49;;;;;;;8.57;8.37;;;-6.40;99.90;;;;;;5089248;28;20239;-80
2022/12/13 01:26:21;;;;;;;8.50;8.30;;;-6.50;99.90;;;;;;5092540;28;20221;-79
2022/12/13 01:28:49;;;;;;;8.50;8.30;;;-6.50;99.90;;;;;;5099620;28;20315;-79
2022/12/13 01:31:20;;;;;;;8.60;8.40;;;-6.50;99.90;;;;;;5092225;28;20269;-80
2022/12/13 01:33:56;;;;;;;8.40;8.20;;;-6.60;99.90;;;;;;5089994;28;20220;-80
2022/12/13 01:36:25;;;;;;;8.33;8.13;;;-6.60;99.90;;;;;;5089356;28;20232;-80
2022/12/13 01:38:55;;;;;;;8.60;8.40;;;-6.60;99.90;;;;;;5089162;28;20309;-79
2022/12/13 01:41:24;;;;;;;8.20;8.00;;;-6.60;99.90;;;;;;5088937;28;20282;-79
2022/12/13 01:44:03;;;;;;;8.13;7.93;;;-6.60;99.90;;;;;;5089103;28;20292;-79
2022/12/13 01:46:32;;;;;;;8.20;8.00;;;-6.60;99.90;;;;;;5089272;28;20233;-82
2022/12/13 01:49:10;;;;;;;8.60;8.40;;;-6.60;99.90;;;;;;5089527;28;20284;-81
2022/12/13 01:51:42;;;;;;;8.43;8.23;;;-6.70;99.90;;;;;;5089718;28;20266;-79
2022/12/13 01:54:18;;;;;;;8.60;8.40;;;-6.70;99.90;;;;;;5090002;28;20281;-81
2022/12/13 01:56:49;;;;;;;9.10;8.80;;;-6.80;99.90;;;;;;5089134;28;20326;-79
2022/12/13 01:59:19;;;;;;;8.70;8.50;;;-6.80;99.90;;;;;;5089853;28;21098;-79
2022/12/13 02:01:49;;;;;;;8.63;8.43;;;-6.90;99.90;;;;;;5094691;28;20259;-79
2022/12/13 02:04:27;;;;;;;8.50;8.30;;;-6.90;99.90;;;;;;5088255;28;20240;-79
2022/12/13 02:06:57;;;;;;;8.60;8.40;;;-6.90;99.90;;;;;;5088485;28;20212;-79
2022/12/13 02:09:25;;;;;;;8.53;8.33;;;-6.90;99.90;;;;;;5087507;28;20343;-79
2022/12/13 02:11:57;;;;;;;8.43;8.23;;;-6.90;99.90;;;;;;5088637;28;20327;-79
2022/12/13 02:14:25;;;;;;;8.20;8.00;;;-6.90;99.90;;;;;;5088635;28;20230;-79
2022/12/13 02:17:02;;;;;;;8.60;8.40;;;-6.90;99.90;;;;;;5088522;28;20279;-79
2022/12/13 02:20:52;;;;;;;8.73;8.53;;;-6.90;99.90;;;;;;5088913;28;20291;-79
2022/12/13 02:24:14;;;;;;;8.50;8.30;;;-7.00;99.90;;;;;;5083459;28;20307;-79
2022/12/13 02:27:10;;;;;;;8.40;8.20;;;-7.00;99.90;;;;;;5087028;28;20272;-79
2022/12/13 02:30:15;;;;;;;8.80;8.60;;;-7.10;99.90;;;;;;5085817;28;20286;-79
2022/12/13 02:33:00;;;;;;;8.50;8.30;;;-7.10;99.90;;;;;;5086940;28;20234;-79
2022/12/13 02:35:38;;;;;;;8.73;8.53;;;-7.10;99.90;;;;;;5085872;28;20288;-82
2022/12/13 02:38:17;;;;;;;8.70;8.50;;;-7.10;99.90;;;;;;5086556;28;20240;-82
2022/12/13 02:40:55;;;;;;;8.80;8.60;;;-7.10;99.90;;;;;;5085100;28;20237;-79
2022/12/13 02:43:27;;;;;;;8.77;8.57;;;-7.10;99.90;;;;;;5086509;28;20317;-82
2022/12/13 02:46:05;;;;;;;8.70;8.50;;;-7.10;99.90;;;;;;5085704;28;20255;-80
2022/12/13 02:48:43;;;;;;;8.70;8.50;;;-7.10;99.90;;;;;;5087709;28;20224;-79
2022/12/13 02:51:12;;;;;;;8.50;8.30;;;-7.10;99.90;;;;;;5086368;28;20224;-80
2022/12/13 02:53:41;;;;;;;8.60;8.40;;;-7.20;99.90;;;;;;5086164;28;20241;-79
2022/12/13 02:56:09;;;;;;;8.40;8.20;;;-7.20;99.90;;;;;;5084605;28;20255;-79
2022/12/13 02:58:41;;;;;;;8.60;8.40;;;-7.30;99.90;;;;;;5084862;28;20269;-79
2022/12/13 03:01:44;;;;;;;8.90;8.70;;;-7.30;99.90;;;;;;5085252;28;20322;-79
2022/12/13 03:04:22;;;;;;;8.87;8.67;;;-7.30;99.90;;;;;;5084942;28;20224;-80
2022/12/13 03:07:00;;;;;;;8.80;8.60;;;-7.30;99.90;;;;;;5086505;28;20330;-79
2022/12/13 03:09:40;;;;;;;8.50;8.30;;;-7.30;99.90;;;;;;5095829;28;20226;-79
2022/12/13 03:15:21;;;;;;;8.60;8.40;;;-7.30;99.90;;;;;;5089351;28;20233;-82
2022/12/13 03:17:59;;;;;;;8.33;8.13;;;-7.30;99.90;;;;;;5087050;28;20399;-79
2022/12/13 03:20:29;;;;;;;8.20;8.00;;;-7.30;99.90;;;;;;5086416;28;20317;-79
2022/12/13 03:22:58;;;;;;;8.17;7.97;;;-7.30;99.90;;;;;;5086767;28;20274;-78
2022/12/13 03:25:30;;;;;;;8.90;8.70;;;-7.40;99.90;;;;;;5086122;28;20244;-79
2022/12/13 03:27:57;;;;;;;8.70;8.50;;;-7.40;99.90;;;;;;5090172;28;20253;-79
2022/12/13 03:30:26;;;;;;;8.60;8.40;;;-7.40;99.90;;;;;;5090279;28;20226;-79
2022/12/13 03:35:43;;;;;;;8.20;8.00;;;-7.40;99.90;;;;;;5092549;28;20206;-79
2022/12/13 03:38:12;;;;;;;8.40;8.20;;;-7.40;99.90;;;;;;5098375;28;20237;-80
2022/12/13 03:40:42;;;;;;;8.50;8.30;;;-7.40;99.90;;;;;;5094627;28;20282;-80
2022/12/13 03:43:19;;;;;;;8.37;8.17;;;-7.40;99.90;;;;;;5086683;28;20287;-80
2022/12/13 03:45:49;;;;;;;8.37;8.17;;;-7.30;99.90;;;;;;5085148;28;20283;-79
2022/12/13 03:48:28;;;;;;;8.40;8.20;;;-7.40;99.90;;;;;;5085263;28;20233;-80
2022/12/13 03:50:57;;;;;;;8.33;8.13;;;-7.50;99.90;;;;;;5085229;28;20257;-80
2022/12/13 03:53:26;;;;;;;8.43;8.23;;;-7.40;99.90;;;;;;5085684;28;20235;-80
2022/12/13 03:55:59;;;;;;;8.47;8.27;;;-7.60;99.90;;;;;;5084081;28;20240;-80
2022/12/13 03:58:28;;;;;;;8.30;8.10;;;-7.60;99.90;;;;;;5085411;28;20238;-79
2022/12/13 04:00:56;;;;;;;8.00;7.80;;;-7.60;99.90;;;;;;5084370;28;20232;-80
2022/12/13 04:06:13;;;;;;;8.30;8.10;;;-7.70;99.90;;;;;;5083692;28;20694;-79
2022/12/13 04:08:43;;;;;;;8.43;8.23;;;-7.70;99.90;;;;;;5084830;28;20230;-80
2022/12/13 04:14:00;;;;;;;8.20;8.00;;;-7.80;99.90;;;;;;5085128;28;20206;-79
2022/12/13 04:16:29;;;;;;;8.20;8.00;;;-7.80;99.90;;;;;;5084619;28;20253;-79
2022/12/13 04:19:07;;;;;;;8.10;7.90;;;-7.90;99.90;;;;;;5084723;28;20304;-79
2022/12/13 04:21:37;;;;;;;8.13;7.93;;;-7.90;99.90;;;;;;5084594;28;20240;-79
2022/12/13 04:24:05;;;;;;;8.10;7.90;;;-7.90;99.90;;;;;;5084561;28;20325;-79
2022/12/13 04:26:35;;;;;;;8.10;7.90;;;-7.80;99.90;;;;;;5084177;28;20226;-78
2022/12/13 04:29:05;;;;;;;7.97;7.77;;;-7.90;99.90;;;;;;5084109;28;20269;-79
2022/12/13 04:31:36;;;;;;;8.00;7.80;;;-7.90;99.90;;;;;;5083851;28;21018;-79
2022/12/13 04:34:06;;;;;;;8.20;8.00;;;-7.90;99.90;;;;;;5084346;28;20241;-79
2022/12/13 04:36:34;;;;;;;7.43;7.23;;;-8.00;99.90;;;;;;5110578;22;20232;-82
2022/12/13 04:39:11;;;;;;;7.50;7.30;;;-8.00;99.90;;;;;;5098459;28;20241;-82
2022/12/13 04:41:58;;;;;;;7.73;7.53;;;-8.10;99.90;;;;;;5097966;28;20228;-82
2022/12/13 04:44:27;;;;;;;7.87;7.67;;;-8.10;99.90;;;;;;5097701;28;20328;-82
2022/12/13 04:47:07;;;;;;;8.13;7.93;;;-8.00;99.90;;;;;;5090279;28;20264;-82
2022/12/13 04:49:41;;;;;;;8.23;8.03;;;-7.90;99.90;;;;;;5077240;28;20320;-82
2022/12/13 04:52:13;;;;;;;8.20;8.00;;;-7.90;99.90;;;;;;5077250;28;20225;-81
2022/12/13 04:54:43;;;;;;;8.20;8.00;;;-8.00;99.90;;;;;;5076731;28;20227;-82
2022/12/13 04:57:12;;;;;;;8.10;7.90;;;-8.00;99.90;;;;;;5077056;28;20238;-82
2022/12/13 04:59:45;;;;;;;8.30;8.10;;;-8.00;99.90;;;;;;5085774;28;20241;-82
2022/12/13 05:02:20;;;;;;;8.27;8.07;;;-7.90;99.90;;;;;;5093565;28;20236;-83
2022/12/13 05:05:02;;;;;;;8.30;8.10;;;-7.90;99.90;;;;;;5100576;28;20220;-82
2022/12/13 05:07:29;;;;;;;8.13;7.93;;;-7.90;99.90;;;;;;5101325;28;20234;-81
2022/12/13 05:09:57;;;;;;;7.87;7.67;;;-8.00;99.90;;;;;;5116143;28;20233;-82
2022/12/13 05:12:29;;;;;;;8.33;8.13;;;-8.00;99.90;;;;;;5104193;28;20306;-81
2022/12/13 05:14:57;;;;;;;8.50;8.30;;;-8.00;99.90;;;;;;5100657;28;20225;-80
2022/12/13 05:17:34;;;;;;;8.53;8.33;;;-8.00;99.90;;;;;;5100533;28;20242;-82
2022/12/13 05:20:13;;;;;;;8.60;8.40;;;-8.00;99.90;;;;;;5101267;28;20253;-83
2022/12/13 05:22:44;;;;;;;8.60;8.40;;;-8.00;99.90;;;;;;5100399;28;20244;-82
2022/12/13 05:25:13;;;;;;;8.40;8.20;;;-8.00;99.90;;;;;;5101211;28;20232;-83
2022/12/13 05:27:52;;;;;;;8.23;8.03;;;-8.00;99.90;;;;;;5101141;28;20230;-83
2022/12/13 05:30:27;;;;;;;8.33;8.13;;;-8.00;99.90;;;;;;5100432;28;20226;-83
2022/12/13 05:32:57;;;;;;;8.50;8.30;;;-8.00;99.90;;;;;;5103628;28;20236;-83
2022/12/13 05:35:36;;;;;;;8.50;8.30;;;-8.10;99.90;;;;;;5105289;28;20226;-83
2022/12/13 05:38:08;;;;;;;7.97;7.77;;;-8.00;99.90;;;;;;5104061;28;20245;-82
2022/12/13 05:40:35;;;;;;;8.50;8.30;;;-8.00;99.90;;;;;;5103599;28;20237;-82
2022/12/13 05:43:04;;;;;;;8.60;8.40;;;-8.00;99.90;;;;;;5100273;28;20226;-83
2022/12/13 05:45:33;;;;;;;8.50;8.30;;;-8.00;99.90;;;;;;5096832;28;20360;-82
2022/12/13 05:48:02;;;;;;;8.10;7.90;;;-8.00;99.90;;;;;;5115843;28;20720;-82
2022/12/13 05:50:41;;;;;;;8.53;8.33;;;-8.00;99.90;;;;;;5107479;28;20259;-83
2022/12/13 05:53:15;;;;;;;8.40;8.20;;;-7.90;99.90;;;;;;5115661;28;20209;-81
2022/12/13 05:55:43;;;;;;;8.30;8.10;;;-7.90;99.90;;;;;;5118592;28;20201;-82
2022/12/13 05:58:14;;;;;;;8.30;8.10;;;-8.00;99.90;;;;;;5109737;28;20236;-82
2022/12/13 06:00:43;;;;;;;8.37;8.17;;;-8.10;99.90;;;;;;5105082;28;20378;-82
2022/12/13 06:03:15;;;;;;;8.33;8.13;;;-8.10;99.90;;;;;;5111122;28;20231;-82
2022/12/13 06:05:50;;;;;;;8.70;8.50;;;-8.20;99.90;;;;;;5105077;28;20241;-82
2022/12/13 06:08:17;;;;;;;8.57;8.37;;;-8.20;99.90;;;;;;5106305;28;20240;-82
2022/12/13 06:10:49;;;;;;;8.70;8.50;;;-8.20;99.90;;;;;;5105865;28;20255;-82
2022/12/13 06:13:18;;;;;;;8.90;8.70;;;-8.20;99.90;;;;;;5106496;28;20236;-82
2022/12/13 06:15:54;;;;;;;8.47;8.27;;;-8.20;99.90;;;;;;5106764;28;20218;-82
2022/12/13 06:18:25;;;;;;;8.63;8.43;;;-8.20;99.90;;;;;;5108273;28;20265;-84
2022/12/13 06:21:04;;;;;;;8.40;8.20;;;-8.20;99.90;;;;;;5106733;28;20253;-82
2022/12/13 06:23:35;;;;;;;8.60;8.40;;;-8.20;99.90;;;;;;5105340;28;20228;-82
2022/12/13 06:26:04;;;;;;;8.50;8.30;;;-8.30;99.90;;;;;;5101471;28;20321;-82
2022/12/13 06:28:32;;;;;;;8.77;8.57;;;-8.30;99.90;;;;;;5101450;28;20233;-82
2022/12/13 06:31:01;;;;;;;8.60;8.40;;;-8.30;99.90;;;;;;5100979;28;20282;-83
2022/12/13 06:33:34;;;;;;;8.40;8.20;;;-8.30;99.90;;;;;;5102582;28;20218;-83
2022/12/13 06:36:10;;;;;;;8.43;8.23;;;-8.40;99.90;;;;;;5101046;28;20284;-83
2022/12/13 06:38:38;;;;;;;8.00;7.80;;;-8.40;99.90;;;;;;5104494;28;20240;-84
2022/12/13 06:41:16;;;;;;;7.93;7.73;;;-8.30;99.90;;;;;;5109171;28;20241;-84
2022/12/13 06:43:45;;;;;;;8.70;8.50;;;-8.30;99.90;;;;;;5114985;28;20228;-83
2022/12/13 06:46:15;;;;;;;8.97;8.77;;;-8.30;99.90;;;;;;5117428;28;20230;-83
2022/12/13 06:48:44;;;;;;;9.23;8.93;;;-8.40;99.90;;;;;;5104670;28;20325;-81
2022/12/13 06:51:14;;;;;;;8.93;8.73;;;-8.40;99.90;;;;;;5103135;28;20255;-82
2022/12/13 06:53:42;;;;;;;8.83;8.63;;;-8.40;99.90;;;;;;5103250;28;20324;-81
2022/12/13 06:56:12;;;;;;;9.00;8.80;;;-8.50;99.90;;;;;;5102008;28;20277;-81
2022/12/13 06:58:42;;;;;;;9.20;8.90;;;-8.50;99.90;;;;;;5102241;28;20225;-81
2022/12/13 07:01:14;;;;;;;9.50;9.20;;;-8.50;99.90;;;;;;5101883;28;20259;-82
2022/12/13 07:03:43;;;;;;;9.40;9.10;;;-8.50;99.90;;;;;;5102405;28;20320;-82
2022/12/13 07:06:18;;;;;;;9.20;8.90;;;-8.50;99.90;;;;;;5101782;28;20228;-81
2022/12/13 07:08:50;;;;;;;9.40;9.10;;;-8.40;99.90;;;;;;5111274;28;20209;-81
2022/12/13 07:11:27;;;;;;;9.50;9.20;;;-8.40;99.90;;;;;;5103581;28;20229;-81
2022/12/13 07:13:59;;;;;;;9.20;8.90;;;-8.40;99.90;;;;;;5102675;28;20230;-81
2022/12/13 07:16:28;;;;;;;9.03;8.80;;;-8.30;99.90;;;;;;5101673;28;20239;-81
2022/12/13 07:19:01;;;;;;;8.90;8.70;;;-8.40;99.90;;;;;;5109557;28;20244;-81
2022/12/13 07:21:39;;;;;;;9.37;9.07;;;-8.30;99.90;;;;;;5119937;28;20224;-80
2022/12/13 07:24:12;;;;;;;10.20;9.90;;;-8.30;99.90;;;;;;5117603;28;20225;-81
2022/12/13 07:26:40;;;;;;;9.67;9.37;;;-8.20;99.90;;;;;;5101285;28;20230;-81
2022/12/13 07:29:23;;;;;;;8.37;8.17;;;-7.90;99.90;;;;;;5098803;28;20257;-82
2022/12/13 07:31:53;;;;;;;8.10;7.90;;;-7.80;99.90;;;;;;5099581;28;20237;-82
2022/12/13 07:34:36;;;;;;;8.13;7.93;;;-7.70;99.90;;;;;;5099342;28;20335;-83
2022/12/13 07:40:09;;;;;;;8.40;8.20;;;-7.70;99.90;;;;;;5097050;28;20287;-82
2022/12/13 07:42:58;;;;;;;8.27;8.07;;;-7.70;99.90;;;;;;5099399;28;20232;-82
2022/12/13 07:45:45;;;;;;;8.07;7.87;;;-7.60;99.90;;;;;;5098872;28;20252;-82
2022/12/13 07:48:26;;;;;;;8.13;7.93;;;-7.50;99.90;;;;;;5103822;28;20233;-81
2022/12/13 07:51:28;;;;;;;8.30;8.10;;;-7.60;99.90;;;;;;5101220;28;20299;-82
2022/12/13 07:54:07;;;;;;;8.70;8.50;;;-7.60;99.90;;;;;;5066540;28;20225;-82
2022/12/13 07:56:56;;;;;;;8.57;8.37;;;-7.60;99.90;;;;;;5115419;28;20224;-79
2022/12/13 07:59:33;;;;;;;8.60;8.40;;;-7.60;99.90;;;;;;5119334;28;20202;-81
2022/12/13 08:08:57;;;;;;;9.20;8.90;;;-7.40;99.90;;;;;;5033712;28;20239;-83
2022/12/13 08:11:44;;;;;;;8.60;8.40;;;-7.40;99.90;;;;;;5036084;28;20233;-82
2022/12/13 08:14:11;;;;;;;8.43;8.23;;;-7.30;99.90;;;;;;5097599;28;20256;-81
2022/12/13 08:16:39;;;;;;;8.57;8.37;;;-7.30;99.90;;;;;;5097644;28;20693;-82
2022/12/13 08:19:10;;;;;;;8.50;8.30;;;-7.20;99.90;;;;;;5097616;28;20341;-82
2022/12/13 08:21:55;;;;;;;8.40;8.20;;;-7.10;99.90;;;;;;5098651;28;20228;-82
2022/12/13 08:24:27;;;;;;;8.23;8.03;;;-7.00;99.90;;;;;;5098550;28;20245;-80
2022/12/13 08:27:00;;;;;;;8.70;8.50;;;-6.90;99.90;;;;;;5097527;28;20229;-81
2022/12/13 08:32:12;;;;;;;8.27;8.07;;;-6.70;99.90;;;;;;5096534;28;20238;-82
2022/12/13 08:34:44;;;;;;;8.80;8.60;;;-6.50;99.90;;;;;;5098968;28;20240;-81
2022/12/13 08:37:22;;;;;;;8.70;8.50;;;-6.50;99.90;;;;;;5097760;28;20243;-82
2022/12/13 08:39:51;;;;;;;8.67;8.47;;;-6.30;99.90;;;;;;5102879;28;20219;-82
2022/12/13 08:42:21;;;;;;;8.80;8.60;;;-6.20;99.90;;;;;;5101805;28;20233;-82
2022/12/13 08:44:50;;;;;;;8.83;8.63;;;-6.00;99.90;;;;;;5106030;28;20251;-81
2022/12/13 08:47:26;;;;;;;8.73;8.53;;;-5.70;99.90;;;;;;5117435;28;20245;-81
2022/12/13 08:49:55;;;;;;;8.30;8.10;;;-5.50;99.90;;;;;;5120857;28;20287;-80
2022/12/13 08:52:26;;;;;;;8.40;8.20;;;-5.40;99.90;;;;;;5107081;28;20251;-81
2022/12/13 08:55:03;;;;;;;8.57;8.37;;;-5.30;99.90;;;;;;5104592;28;20247;-81
2022/12/13 08:57:36;;;;;;;8.77;8.57;;;-5.10;99.90;;;;;;5103737;28;20268;-82
2022/12/13 09:00:05;;;;;;;8.47;8.27;;;-5.10;99.90;;;;;;5103567;28;20262;-82
2022/12/13 09:02:40;;;;;;;8.60;8.40;;;-4.90;99.90;;;;;;5103435;28;20320;-82
2022/12/13 09:05:10;;;;;;;9.10;8.80;;;-4.70;99.90;;;;;;5096346;28;20232;-82
2022/12/13 09:07:39;;;;;;;8.67;8.47;;;-4.50;99.90;;;;;;5088238;28;20229;-82
2022/12/13 09:10:18;;;;;;;9.00;8.80;;;-4.30;99.90;;;;;;5076643;28;20226;-83
2022/12/13 09:12:48;;;;;;;8.90;8.70;;;-4.00;99.90;;;;;;5063479;28;20230;-81
2022/12/13 09:15:16;;;;;;;9.13;8.83;;;-3.80;99.90;;;;;;5062689;28;20237;-83
2022/12/13 09:17:45;;;;;;;8.80;8.60;;;-3.60;99.90;;;;;;5062368;28;20243;-83
2022/12/13 09:20:14;;;;;;;9.07;8.80;;;-3.50;99.90;;;;;;5062325;28;20248;-82
2022/12/13 09:34:10;;;;;;;9.20;8.90;;;-2.80;99.90;;;;;;5083002;28;20236;-83
2022/12/13 09:39:38;;;;;;;9.13;8.83;;;-2.90;99.90;;;;;;5041849;28;20231;-85
2022/12/13 09:42:16;;;;;;;9.40;9.10;;;-2.80;99.90;;;;;;5043121;28;20228;-84
2022/12/13 09:45:10;;;;;;;9.67;9.37;;;-2.80;99.90;;;;;;5043730;28;20250;-84
2022/12/13 09:51:55;;;;;;;9.40;9.10;;;-2.90;99.90;;;;;;5062389;28;20218;-85
2022/12/13 09:54:31;;;;;;;9.30;9.00;;;-3.20;99.90;;;;;;5021667;28;20227;-84
2022/12/13 09:57:07;;;;;;;9.10;8.80;;;-3.30;99.90;;;;;;5063055;28;20226;-86
2022/12/13 09:59:52;;;;;;;9.30;9.00;;;-3.20;99.90;;;;;;5061434;28;20234;-86
2022/12/13 10:05:35;;;;;;;9.40;9.10;;;-2.50;99.90;;;;;;5062374;28;20231;-85
2022/12/13 10:12:16;;;;;;;9.20;8.90;;;-2.20;99.90;;;;;;5059087;28;20223;-85
2022/12/13 10:18:37;;;;;;;9.33;9.03;;;-2.20;99.90;;;;;;5013809;28;20226;-86
2022/12/13 10:24:43;;;;;;;9.77;9.47;;;-1.90;99.90;;;;;;5061669;28;20230;-84
2022/12/13 10:36:29;;;;;;;10.10;9.80;;;-1.10;99.90;;;;;;5056997;28;20288;-86
2022/12/13 10:41:47;;;;;;;9.87;9.57;;;-0.70;99.90;;;;;;5060162;28;20241;-86
2022/12/13 10:47:28;;;;;;;9.63;9.33;;;-0.80;99.90;;;;;;5058745;28;20859;-85
2022/12/13 10:52:50;;;;;;;9.80;9.50;;;-0.90;99.90;;;;;;4989928;28;20229;-81
2022/12/13 10:55:29;;;;;;;9.57;9.27;;;-1.00;99.90;;;;;;5046866;28;20330;-80
2022/12/13 11:02:25;;;;;;;9.70;9.40;;;-1.30;99.90;;;;;;4976961;28;20243;-85
2022/12/13 11:04:57;;;;;;;9.47;9.17;;;-1.00;99.90;;;;;;5004303;28;20234;-82
2022/12/13 11:07:33;;;;;;;9.60;9.30;;;-0.60;99.90;;;;;;5065443;28;20319;-83
2022/12/13 11:10:21;;;;;;;9.50;9.20;;;-0.70;99.90;;;;;;5095006;22;20268;-83
2022/12/13 11:12:50;;;;;;;9.90;9.60;;;-0.60;99.90;;;;;;5071729;28;20233;-80
2022/12/13 11:15:28;;;;;;;9.70;9.40;;;-0.50;99.90;;;;;;5084626;28;20248;-81
2022/12/13 11:18:04;;;;;;;10.03;9.73;;;-0.40;99.90;;;;;;5084904;28;20240;-81
2022/12/13 11:20:36;;;;;;;9.80;9.50;;;-0.30;99.90;;;;;;5074818;28;20233;-80
2022/12/13 11:23:06;;;;;;;9.80;9.50;;;-0.20;99.90;;;;;;5066557;28;20245;-81
2022/12/13 11:25:40;;;;;;;9.63;9.33;;;-0.10;99.90;;;;;;5062777;28;20244;-81
2022/12/13 11:28:37;;;;;;;9.33;9.03;;;0.00;99.90;;;;;;5079306;28;20214;-81
2022/12/13 11:31:15;;;;;;;9.73;9.43;;;0.00;99.90;;;;;;5042936;28;20286;-81
2022/12/13 11:34:02;;;;;;;9.63;9.33;;;0.40;99.90;;;;;;5042602;28;20235;-81
2022/12/13 11:36:49;;;;;;;9.70;9.40;;;0.90;99.90;;;;;;5043308;28;20230;-83
2022/12/13 11:39:28;;;;;;;9.43;9.13;;;1.40;99.90;;;;;;5043343;28;20238;-81
2022/12/13 11:42:06;;;;;;;9.63;9.33;;;1.90;99.90;;;;;;5043029;28;20290;-81
2022/12/13 11:44:44;;;;;;;9.70;9.40;;;1.90;99.90;;;;;;5042590;28;20262;-82
2022/12/13 11:47:23;;;;;;;9.70;9.40;;;1.70;99.90;;;;;;5044283;28;20261;-82
2022/12/13 11:50:02;;;;;;;9.70;9.40;;;1.70;99.90;;;;;;5043427;28;20227;-82
2022/12/13 11:52:40;;;;;;;10.00;9.70;;;1.60;99.90;;;;;;5042673;28;20219;-81
2022/12/13 11:55:19;;;;;;;9.80;9.50;;;1.70;99.90;;;;;;5042969;28;20227;-82
2022/12/13 11:57:59;;;;;;;9.73;9.43;;;1.90;99.90;;;;;;5044316;28;20263;-83
2022/12/13 12:00:36;;;;;;;10.07;9.77;;;2.20;99.90;;;;;;5043751;28;20239;-81
2022/12/13 12:03:22;;;;;;;9.80;9.50;;;2.70;99.90;;;;;;5047654;28;20230;-82
2022/12/13 12:06:02;;;;;;;9.50;9.20;;;3.10;99.90;;;;;;5050098;28;20230;-82
2022/12/13 12:08:39;;;;;;;9.60;9.30;;;3.40;99.90;;;;;;5083000;28;20271;-83
2022/12/13 12:11:17;;;;;;;9.43;9.13;;;3.70;99.90;;;;;;5082877;28;20367;-81
2022/12/13 12:13:55;;;;;;;9.60;9.30;;;4.00;99.90;;;;;;5089227;28;20234;-81
2022/12/13 12:16:34;;;;;;;9.53;9.23;;;4.30;99.90;;;;;;5089235;28;20273;-82
2022/12/13 12:19:06;;;;;;;9.70;9.40;;;4.60;99.90;;;;;;5087641;28;20265;-82
2022/12/13 12:21:50;;;;;;;9.73;9.43;;;4.60;99.90;;;;;;5086394;28;20373;-81
2022/12/13 12:24:29;;;;;;;9.80;9.50;;;4.50;99.90;;;;;;5087909;28;20317;-80
2022/12/13 12:27:15;;;;;;;10.13;9.83;;;4.60;99.90;;;;;;5052720;28;20251;-80
2022/12/13 12:30:03;;;;;;;10.00;9.70;;;4.80;99.90;;;;;;5054738;28;20243;-82
2022/12/13 12:32:42;;;;;;;10.10;9.80;;;4.80;99.90;;;;;;5051055;28;20224;-79
2022/12/13 12:35:27;;;;;;;10.07;9.77;;;4.40;99.90;;;;;;5045668;28;20223;-80
2022/12/13 12:38:15;;;;;;;9.90;9.60;;;4.00;99.90;;;;;;5045122;28;20290;-81
2022/12/13 12:41:10;;;;;;;10.23;9.93;;;3.90;99.90;;;;;;5045242;28;20255;-80
2022/12/13 12:43:41;;;;;;;10.40;10.10;;;4.00;99.90;;;;;;5044780;28;20255;-80
2022/12/13 12:46:36;;;;;;;10.40;10.10;;;4.20;99.90;;;;;;5044604;28;20267;-80
2022/12/13 12:49:52;;;;;;;10.47;10.17;;;4.20;99.90;;;;;;5044719;28;20241;-80
2022/12/13 12:52:28;;;;;;;10.90;10.60;;;4.10;99.90;;;;;;5044381;28;20777;-80
2022/12/13 12:55:14;;;;;;;10.63;10.33;;;4.20;99.90;;;;;;5044839;28;20237;-80
2022/12/13 12:57:54;;;;;;;10.60;10.30;;;4.20;99.90;;;;;;5043821;28;20279;-80
2022/12/13 13:00:23;;;;;;;10.30;10.00;;;4.10;99.90;;;;;;5043957;28;20259;-81
2022/12/13 13:03:00;;;;;;;10.30;10.00;;;4.10;99.90;;;;;;5044288;28;20241;-81
2022/12/13 13:05:40;;;;;;;10.20;9.90;;;4.10;99.90;;;;;;5044644;28;20254;-80
2022/12/13 13:08:17;;;;;;;10.40;10.10;;;4.00;99.90;;;;;;5079010;28;20226;-81
2022/12/13 13:10:56;;;;;;;10.30;10.00;;;4.00;99.90;;;;;;5084330;28;20705;-80
2022/12/13 13:13:50;;;;;;;10.23;9.93;;;4.00;99.90;;;;;;5086408;28;20228;-80
2022/12/13 13:16:38;;;;;;;10.27;9.97;;;4.10;99.90;;;;;;5086926;28;20262;-81
2022/12/13 13:19:09;;;;;;;9.80;9.50;;;4.10;99.90;;;;;;5086535;28;20321;-81
2022/12/13 13:21:48;;;;;;;9.77;9.47;;;3.90;99.90;;;;;;5079426;28;20239;-81
2022/12/13 13:24:25;;;;;;;10.00;9.70;;;4.00;99.90;;;;;;5075124;28;20257;-84
2022/12/13 13:27:02;;;;;;;10.47;10.17;;;4.20;99.90;;;;;;5080435;28;20231;-84
2022/12/13 13:29:35;;;;;;;10.20;9.90;;;3.90;99.90;;;;;;5067977;28;20222;-82
2022/12/13 13:32:11;;;;;;;10.23;9.93;;;3.80;99.90;;;;;;5070608;28;20203;-82
2022/12/13 13:34:41;;;;;;;10.20;9.90;;;4.00;99.90;;;;;;5072729;28;20241;-82
2022/12/13 13:37:29;;;;;;;10.10;9.80;;;4.40;99.90;;;;;;5071417;28;20315;-82
2022/12/13 13:40:05;;;;;;;9.87;9.57;;;4.00;99.90;;;;;;5083628;28;20245;-84
2022/12/13 13:43:08;;;;;;;9.80;9.50;;;4.10;99.90;;;;;;5070649;28;20238;-83
2022/12/13 13:46:04;;;;;;;10.10;9.80;;;4.30;99.90;;;;;;5067861;28;20230;-82
2022/12/13 13:48:53;;;;;;;9.90;9.60;;;4.60;99.90;;;;;;5068632;28;20226;-82
2022/12/13 13:51:56;;;;;;;10.00;9.70;;;4.40;99.90;;;;;;5067628;28;20290;-83
2022/12/13 13:54:56;;;;;;;9.87;9.57;;;4.30;99.90;;;;;;5067385;28;20241;-83
2022/12/13 13:58:33;;;;;;;9.60;9.30;;;4.10;99.90;;;;;;5073113;28;20234;-83
2022/12/13 14:01:48;;;;;;;9.80;9.50;;;3.60;99.90;;;;;;4996596;28;20293;-84
2022/12/13 14:05:11;;;;;;;10.00;9.70;;;3.80;99.90;;;;;;5068279;28;20242;-83
2022/12/13 14:08:14;;;;;;;9.70;9.40;;;3.90;99.90;;;;;;5000744;28;20269;-84
2022/12/13 14:11:01;;;;;;;9.90;9.60;;;3.70;99.90;;;;;;5065295;28;20246;-83
2022/12/13 14:17:18;;;;;;;9.07;8.87;;;3.50;99.90;;;;;;5226579;27;20615;-82
2022/12/13 14:20:43;;;;;;;9.20;8.90;;;3.00;99.90;;;;;;5158602;27;20293;-82
2022/12/13 14:23:38;;;;;;;9.30;9.00;;;2.30;99.90;;;;;;5206450;27;20232;-82
2022/12/13 14:26:43;;;;;;;9.20;8.90;;;1.80;99.90;;;;;;5207062;27;20222;-82
2022/12/13 14:29:19;;;;;;;9.20;8.90;;;1.80;99.90;;;;;;5206763;27;20221;-82
2022/12/13 14:31:49;;;;;;;9.77;9.47;;;1.70;99.90;;;;;;5212364;27;20246;-82
2022/12/13 14:34:27;;;;;;;9.70;9.40;;;1.50;99.90;;;;;;5216520;27;20237;-82
2022/12/13 14:36:57;;;;;;;9.70;9.40;;;1.50;99.90;;;;;;5210389;27;20250;-82
2022/12/13 14:39:28;;;;;;;9.00;8.80;;;1.50;99.90;;;;;;5209269;27;20240;-82
2022/12/13 14:41:59;;;;;;;9.20;8.90;;;1.40;99.90;;;;;;5209899;27;20240;-82
2022/12/13 14:47:13;;;;;;;9.20;8.90;;;1.10;99.90;;;;;;5209304;27;20218;-83
2022/12/13 14:49:59;;;;;;;9.30;9.00;;;0.90;99.90;;;;;;5209574;27;20230;-83
2022/12/13 14:52:29;;;;;;;9.30;9.00;;;0.70;99.90;;;;;;5207752;27;20291;-84
2022/12/13 14:54:59;;;;;;;9.20;8.90;;;0.40;99.90;;;;;;5207997;27;20253;-84
2022/12/13 14:57:30;;;;;;;9.57;9.27;;;0.30;99.90;;;;;;5207738;27;20226;-84
2022/12/13 15:02:52;;;;;;;9.30;9.00;;;0.00;99.90;;;;;;5206820;27;20242;-83
2022/12/13 15:05:33;;;;;;;9.13;8.83;;;-0.20;99.90;;;;;;5208966;27;20287;-84
2022/12/13 15:08:02;;;;;;;9.50;9.20;;;-0.20;99.90;;;;;;5219313;27;20227;-83